createdAt,value
2019-06-07T00:01:44.167Z,8.58
2019-06-07T00:04:14.174Z,9.20
2019-06-07T00:06:44.322Z,8.53
2019-06-07T00:09:15.395Z,8.50
2019-06-07T00:11:44.466Z,8.53
2019-06-07T00:14:15.791Z,8.63
2019-06-07T00:16:44.613Z,7.90
2019-06-07T00:19:15.881Z,8.50
2019-06-07T00:24:16.810Z,7.75
2019-06-07T00:26:57.610Z,8.43
2019-06-07T00:29:21.131Z,8.75
2019-06-07T00:31:48.475Z,7.62
2019-06-07T00:34:20.020Z,8.50
2019-06-07T00:36:49.580Z,8.53
2019-06-07T00:39:22.919Z,9.78
2019-06-07T00:41:49.614Z,8.15
2019-06-07T00:44:22.638Z,10.03
2019-06-07T00:46:49.769Z,9.50
2019-06-07T00:49:32.379Z,8.90
2019-06-07T00:51:51.763Z,9.10
2019-06-07T00:54:22.464Z,8.30
2019-06-07T00:56:51.679Z,9.48
2019-06-07T00:59:25.262Z,9.35
2019-06-07T01:01:51.705Z,9.83
2019-06-07T01:04:23.092Z,9.28
2019-06-07T01:06:51.766Z,10.03
2019-06-07T01:09:23.950Z,10.08
2019-06-07T01:11:51.813Z,10.15
2019-06-07T01:14:22.639Z,9.85
2019-06-07T01:17:01.198Z,9.73
2019-06-07T01:19:26.462Z,10.05
2019-06-07T01:21:53.657Z,10.30
2019-06-07T01:24:25.689Z,9.08
2019-06-07T01:26:53.858Z,9.43
2019-06-07T01:29:24.977Z,9.20
2019-06-07T01:31:53.950Z,9.73
2019-06-07T01:34:25.710Z,8.33
2019-06-07T01:36:54.066Z,9.63
2019-06-07T01:39:24.689Z,9.93
2019-06-07T01:41:54.163Z,9.80
2019-06-07T01:44:26.024Z,10.48
2019-06-07T01:46:54.362Z,9.78
2019-06-07T01:49:26.620Z,9.33
2019-06-07T01:51:54.889Z,9.23
2019-06-07T01:54:52.076Z,8.45
2019-06-07T01:56:54.853Z,9.63
2019-06-07T01:59:27.313Z,10.08
2019-06-07T02:01:54.929Z,9.38
2019-06-07T02:04:27.336Z,10.10
2019-06-07T02:06:54.976Z,8.90
2019-06-07T02:09:28.395Z,9.80
2019-06-07T02:11:55.080Z,10.25
2019-06-07T02:14:27.351Z,9.28
2019-06-07T02:16:55.263Z,10.32
2019-06-07T02:19:26.745Z,10.98
2019-06-07T02:21:55.391Z,10.43
2019-06-07T02:24:25.263Z,10.32
2019-06-07T02:26:58.277Z,10.45
2019-06-07T02:29:30.247Z,9.80
2019-06-07T02:31:58.367Z,10.18
2019-06-07T02:34:31.767Z,9.80
2019-06-07T02:36:58.456Z,8.90
2019-06-07T02:39:28.887Z,9.08
2019-06-07T02:41:58.815Z,9.25
2019-06-07T02:44:32.401Z,8.83
2019-06-07T02:46:59.259Z,9.63
2019-06-07T02:49:33.433Z,9.23
2019-06-07T02:51:59.344Z,9.13
2019-06-07T02:54:32.346Z,9.45
2019-06-07T02:56:59.564Z,9.18
2019-06-07T02:59:56.699Z,8.88
2019-06-07T03:02:00.541Z,9.85
2019-06-07T03:04:34.906Z,8.73
2019-06-07T03:07:03.507Z,8.85
2019-06-07T03:09:36.980Z,9.55
2019-06-07T03:12:06.401Z,9.35
2019-06-07T03:17:23.683Z,9.23
2019-06-07T03:19:54.626Z,9.83
2019-06-07T03:22:23.776Z,9.20
2019-06-07T03:24:54.395Z,8.58
2019-06-07T03:27:34.718Z,10.13
2019-06-07T03:29:55.129Z,9.70
2019-06-07T03:32:24.289Z,9.65
2019-06-07T03:34:53.514Z,10.63
2019-06-07T03:37:22.654Z,10.08
2019-06-07T03:39:51.959Z,11.45
2019-06-07T03:42:21.105Z,11.70
2019-06-07T03:44:50.329Z,12.47
2019-06-07T03:47:19.537Z,12.30
2019-06-07T03:49:48.780Z,8.40
2019-06-07T03:52:18.028Z,13.70
2019-06-07T03:54:48.020Z,10.13
2019-06-07T03:57:17.385Z,11.22
2019-06-07T03:59:46.527Z,12.70
2019-06-07T04:02:16.964Z,13.22
2019-06-07T04:04:46.165Z,12.00
2019-06-07T04:07:15.336Z,12.98
2019-06-07T04:09:44.533Z,9.93
2019-06-07T04:12:13.752Z,14.07
2019-06-07T04:14:43.147Z,14.30
2019-06-07T04:17:12.428Z,15.05
2019-06-07T04:19:43.480Z,14.28
2019-06-07T04:22:12.638Z,13.80
2019-06-07T04:24:42.122Z,14.07
2019-06-07T04:27:11.511Z,14.35
2019-06-07T04:30:04.752Z,9.95
2019-06-07T04:32:11.591Z,14.87
2019-06-07T04:34:43.248Z,15.35
2019-06-07T04:37:12.339Z,14.75
2019-06-07T04:39:45.105Z,14.13
2019-06-07T04:42:16.120Z,14.30
2019-06-07T04:44:48.707Z,14.63
2019-06-07T04:47:19.529Z,13.75
2019-06-07T04:49:50.111Z,14.45
2019-06-07T04:52:19.269Z,14.43
2019-06-07T04:54:48.482Z,10.50
2019-06-07T04:57:17.661Z,9.83
2019-06-07T05:00:12.030Z,12.65
2019-06-07T05:02:17.780Z,13.88
2019-06-07T05:04:47.025Z,14.05
2019-06-07T05:07:16.219Z,11.15
2019-06-07T05:09:45.409Z,14.20
2019-06-07T05:12:14.602Z,13.25
2019-06-07T05:14:44.329Z,13.93
2019-06-07T05:19:44.535Z,11.57
2019-06-07T05:22:14.445Z,11.38
2019-06-07T05:24:44.028Z,11.22
2019-06-07T05:27:13.384Z,9.50
2019-06-07T05:29:45.967Z,9.78
2019-06-07T05:32:14.853Z,10.38
2019-06-07T05:34:47.377Z,11.03
2019-06-07T05:37:15.135Z,10.25
2019-06-07T05:39:46.548Z,10.23
2019-06-07T05:42:15.529Z,11.05
2019-06-07T05:44:45.841Z,9.98
2019-06-07T05:47:15.164Z,6.08
2019-06-07T05:49:47.001Z,6.08
2019-06-07T05:52:15.269Z,5.35
2019-06-07T05:54:46.829Z,5.08
2019-06-07T05:57:15.458Z,5.40
2019-06-07T05:59:47.227Z,5.33
2019-06-07T06:02:22.755Z,5.28
2019-06-07T06:04:49.234Z,4.25
2019-06-07T06:07:17.378Z,3.77
2019-06-07T06:09:47.636Z,4.00
2019-06-07T06:12:33.966Z,3.47
2019-06-07T06:14:47.859Z,3.22
2019-06-07T06:17:17.022Z,2.83
2019-06-07T06:19:50.420Z,3.47
2019-06-07T06:22:17.104Z,2.98
2019-06-07T06:25:17.050Z,2.85
2019-06-07T06:27:55.691Z,2.67
2019-06-07T06:29:50.493Z,2.40
2019-06-07T06:34:53.886Z,1.80
2019-06-07T06:37:24.828Z,1.32
2019-06-07T06:39:54.056Z,1.30
2019-06-07T06:44:54.030Z,0.87
2019-06-07T06:47:22.667Z,0.78
2019-06-07T06:49:54.299Z,0.70
2019-06-07T06:52:22.766Z,0.80
2019-06-07T06:54:59.930Z,0.62
2019-06-07T06:57:22.897Z,0.60
2019-06-07T06:59:52.893Z,1.15
2019-06-07T07:02:22.229Z,0.85
2019-06-07T07:04:53.519Z,0.78
2019-06-07T07:07:23.150Z,1.10
2019-06-07T07:09:58.741Z,0.88
2019-06-07T07:12:23.476Z,1.60
2019-06-07T07:14:55.891Z,0.93
2019-06-07T07:17:46.659Z,0.85
2019-06-07T07:19:55.700Z,1.62
2019-06-07T07:22:25.193Z,1.12
2019-06-07T07:24:54.938Z,1.80
2019-06-07T07:27:24.290Z,2.27
2019-06-07T07:30:29.391Z,2.52
2019-06-07T07:32:24.430Z,2.10
2019-06-07T07:34:59.981Z,2.15
2019-06-07T07:37:24.684Z,1.70
2019-06-07T07:42:23.842Z,2.15
2019-06-07T07:47:22.973Z,1.60
2019-06-07T07:49:56.470Z,1.55
2019-06-07T07:52:23.367Z,1.50
2019-06-07T07:54:56.267Z,1.45
2019-06-07T07:57:23.511Z,1.45
2019-06-07T08:00:06.097Z,1.20
2019-06-07T08:02:23.652Z,1.12
2019-06-07T08:05:16.625Z,1.05
2019-06-07T08:07:23.825Z,1.37
2019-06-07T08:09:57.691Z,1.02
2019-06-07T08:12:23.970Z,1.20
2019-06-07T08:14:57.620Z,0.98
2019-06-07T08:17:24.088Z,1.10
2019-06-07T08:19:54.994Z,1.10
2019-06-07T08:22:24.226Z,1.32
2019-06-07T08:24:55.316Z,1.50
2019-06-07T08:27:26.732Z,1.45
2019-06-07T08:30:25.350Z,1.52
2019-06-07T08:32:26.769Z,1.52
2019-06-07T08:35:02.358Z,1.20
2019-06-07T08:38:13.291Z,1.40
2019-06-07T08:40:01.603Z,1.37
2019-06-07T08:42:38.096Z,1.25
2019-06-07T08:45:05.033Z,1.45
2019-06-07T08:47:32.107Z,1.37
2019-06-07T08:50:07.239Z,1.98
2019-06-07T08:52:32.771Z,2.00
2019-06-07T08:55:05.122Z,2.47
2019-06-07T08:57:33.823Z,2.00
2019-06-07T09:00:07.154Z,1.72
2019-06-07T09:02:33.892Z,1.47
2019-06-07T09:05:11.326Z,1.82
2019-06-07T09:07:34.017Z,2.10
2019-06-07T09:10:09.364Z,1.57
2019-06-07T09:12:34.278Z,2.12
2019-06-07T09:15:15.092Z,1.98
2019-06-07T09:17:34.375Z,1.70
2019-06-07T09:20:10.461Z,1.40
2019-06-07T09:22:34.855Z,1.55
2019-06-07T09:25:12.251Z,1.25
2019-06-07T09:27:36.205Z,1.75
2019-06-07T09:30:15.221Z,1.65
2019-06-07T09:32:37.703Z,1.85
2019-06-07T09:35:16.497Z,1.82
2019-06-07T09:38:04.361Z,1.40
2019-06-07T09:40:24.848Z,1.90
2019-06-07T09:42:42.211Z,1.62
2019-06-07T09:47:42.470Z,1.50
2019-06-07T09:52:57.966Z,2.27
2019-06-07T09:55:23.629Z,1.87
2019-06-07T09:57:43.549Z,1.62
2019-06-07T10:00:38.958Z,2.10
2019-06-07T10:02:46.391Z,1.80
2019-06-07T10:05:15.763Z,1.62
2019-06-07T10:08:00.040Z,1.75
2019-06-07T10:12:47.337Z,1.52
2019-06-07T10:15:16.903Z,1.37
2019-06-07T10:17:46.117Z,1.62
2019-06-07T10:20:15.668Z,1.80
2019-06-07T10:22:44.885Z,2.45
2019-06-07T10:25:14.194Z,1.90
2019-06-07T10:27:43.385Z,2.30
2019-06-07T10:32:41.049Z,1.42
2019-06-07T10:35:13.830Z,1.55
2019-06-07T10:37:41.106Z,1.70
2019-06-07T10:42:38.565Z,1.93
2019-06-07T10:47:38.070Z,1.77
2019-06-07T10:52:37.397Z,1.67
2019-06-07T11:00:05.301Z,1.32
2019-06-07T11:02:34.498Z,1.25
2019-06-07T11:05:03.822Z,1.40
2019-06-07T11:07:32.968Z,1.37
2019-06-07T11:10:07.400Z,1.77
2019-06-07T11:12:33.061Z,1.82
2019-06-07T11:15:02.274Z,1.60
2019-06-07T11:17:31.500Z,1.87
2019-06-07T11:20:00.680Z,2.08
2019-06-07T11:22:29.833Z,2.62
2019-06-07T11:24:59.015Z,2.90
2019-06-07T11:27:28.181Z,2.17
2019-06-07T11:29:57.357Z,2.17
2019-06-07T11:32:26.508Z,2.02
2019-06-07T11:34:55.719Z,1.60
2019-06-07T11:37:24.866Z,2.02
2019-06-07T11:39:54.880Z,2.00
2019-06-07T11:42:25.248Z,2.20
2019-06-07T11:44:57.095Z,1.95
2019-06-07T11:47:25.422Z,1.80
2019-06-07T11:49:54.613Z,2.55
2019-06-07T11:52:23.844Z,2.30
2019-06-07T11:54:53.032Z,2.33
2019-06-07T11:57:22.233Z,2.55
2019-06-07T11:59:51.398Z,2.65
2019-06-07T12:02:20.635Z,2.25
2019-06-07T12:04:49.824Z,2.52
2019-06-07T12:07:19.945Z,2.22
2019-06-07T12:09:56.314Z,2.80
2019-06-07T12:12:20.727Z,2.50
2019-06-07T12:14:50.080Z,2.62
2019-06-07T12:17:19.631Z,2.92
2019-06-07T12:22:17.901Z,2.75
2019-06-07T12:24:47.326Z,3.33
2019-06-07T12:27:16.753Z,2.67
2019-06-07T12:29:46.129Z,2.50
2019-06-07T12:32:15.438Z,3.12
2019-06-07T12:34:44.615Z,3.17
2019-06-07T12:37:17.365Z,2.80
2019-06-07T12:39:44.789Z,3.37
2019-06-07T12:42:14.913Z,2.80
2019-06-07T12:44:44.198Z,2.70
2019-06-07T12:47:18.933Z,2.75
2019-06-07T12:49:48.263Z,3.50
2019-06-07T12:52:22.479Z,3.20
2019-06-07T12:54:50.500Z,2.70
2019-06-07T12:57:22.153Z,3.17
2019-06-07T12:59:52.691Z,3.00
2019-06-07T13:02:27.973Z,3.17
2019-06-07T13:04:57.154Z,3.80
2019-06-07T13:07:26.330Z,3.15
2019-06-07T13:09:55.520Z,3.42
2019-06-07T13:12:31.849Z,3.92
2019-06-07T13:15:15.783Z,2.72
2019-06-07T13:17:43.392Z,3.62
2019-06-07T13:20:14.443Z,3.87
2019-06-07T13:22:43.584Z,3.58
2019-06-07T13:25:13.282Z,3.37
2019-06-07T13:27:42.630Z,4.10
2019-06-07T13:30:16.797Z,4.05
2019-06-07T13:32:45.958Z,4.53
2019-06-07T13:35:18.152Z,3.90
2019-06-07T13:37:47.745Z,4.67
2019-06-07T13:40:19.241Z,4.72
2019-06-07T13:42:48.080Z,4.60
2019-06-07T13:45:18.019Z,4.87
2019-06-07T13:47:47.369Z,5.92
2019-06-07T13:50:17.633Z,6.37
2019-06-07T13:52:48.416Z,6.53
2019-06-07T13:55:19.931Z,6.08
2019-06-07T13:57:49.343Z,6.33
2019-06-07T14:00:22.667Z,6.08
2019-06-07T14:06:23.372Z,7.03
2019-06-07T14:08:52.503Z,7.40
2019-06-07T14:11:21.667Z,6.28
2019-06-07T14:13:50.796Z,7.90
2019-06-07T14:16:20.107Z,8.63
2019-06-07T14:18:49.363Z,8.45
2019-06-07T14:21:18.501Z,7.60
2019-06-07T14:23:49.309Z,7.10
2019-06-07T14:26:18.822Z,7.70
2019-06-07T14:28:47.974Z,7.95
2019-06-07T14:31:17.165Z,7.87
2019-06-07T14:33:46.406Z,8.30
2019-06-07T14:36:15.552Z,10.28
2019-06-07T14:38:44.720Z,8.70
2019-06-07T14:41:13.954Z,9.28
2019-06-07T14:43:43.239Z,8.90
2019-06-07T14:46:12.466Z,9.65
2019-06-07T14:48:41.803Z,10.03
2019-06-07T14:51:11.027Z,10.30
2019-06-07T14:53:40.215Z,9.33
2019-06-07T14:56:09.380Z,9.73
2019-06-07T14:58:43.207Z,9.73
2019-06-07T15:01:09.670Z,9.40
2019-06-07T15:08:36.847Z,9.73
2019-06-07T15:11:05.999Z,9.23
2019-06-07T15:13:35.772Z,8.05
2019-06-07T15:16:05.031Z,9.48
2019-06-07T15:18:34.270Z,7.85
2019-06-07T15:21:03.609Z,9.25
2019-06-07T15:23:33.476Z,9.85
2019-06-07T15:26:02.874Z,8.85
2019-06-07T15:28:32.432Z,9.65
2019-06-07T15:31:03.048Z,8.93
2019-06-07T15:33:32.260Z,9.45
2019-06-07T15:36:01.409Z,9.25
2019-06-07T15:38:31.105Z,9.65
2019-06-07T15:41:00.427Z,9.85
2019-06-07T15:43:31.036Z,10.18
2019-06-07T15:46:00.310Z,10.13
2019-06-07T15:48:29.820Z,10.05
2019-06-07T15:50:59.052Z,9.50
2019-06-07T15:53:28.248Z,9.83
2019-06-07T15:55:57.403Z,10.15
2019-06-07T15:58:26.644Z,10.53
2019-06-07T16:00:55.804Z,10.48
2019-06-07T16:03:24.993Z,10.43
2019-06-07T16:05:54.224Z,11.00
2019-06-07T16:08:23.430Z,11.53
2019-06-07T16:10:52.587Z,10.68
2019-06-07T16:13:22.100Z,10.68
2019-06-07T16:18:19.682Z,11.90
2019-06-07T16:20:49.118Z,11.18
2019-06-07T16:23:18.404Z,10.20
2019-06-07T16:25:47.923Z,10.60
2019-06-07T16:30:45.335Z,9.45
2019-06-07T16:33:14.526Z,9.48
2019-06-07T16:35:43.734Z,11.38
2019-06-07T16:38:12.956Z,9.85
2019-06-07T16:40:42.499Z,11.15
2019-06-07T16:43:17.932Z,10.98
2019-06-07T16:45:42.914Z,10.70
2019-06-07T16:48:12.087Z,11.03
2019-06-07T16:50:42.620Z,11.12
2019-06-07T16:53:12.504Z,11.35
2019-06-07T16:58:12.015Z,9.98
2019-06-07T17:00:42.264Z,9.93
2019-06-07T17:03:11.691Z,10.50
2019-06-07T17:05:45.078Z,10.25
2019-06-07T17:08:11.899Z,9.40
2019-06-07T17:10:42.541Z,9.55
2019-06-07T17:13:11.834Z,9.38
2019-06-07T17:15:41.049Z,10.32
2019-06-07T17:18:10.266Z,9.75
2019-06-07T17:20:39.460Z,10.05
2019-06-07T17:23:08.590Z,10.55
2019-06-07T17:25:37.752Z,9.70
2019-06-07T17:28:06.934Z,9.30
2019-06-07T17:30:36.107Z,8.90
2019-06-07T17:33:05.330Z,9.85
2019-06-07T17:35:34.478Z,9.25
2019-06-07T17:38:03.637Z,8.85
2019-06-07T17:40:32.811Z,9.05
2019-06-07T17:43:02.013Z,8.85
2019-06-07T17:45:31.174Z,8.35
2019-06-07T17:48:00.378Z,7.87
2019-06-07T17:50:29.502Z,8.23
2019-06-07T17:52:58.749Z,8.40
2019-06-07T17:55:27.889Z,8.03
2019-06-07T17:57:57.378Z,8.10
2019-06-07T18:00:33.652Z,7.60
2019-06-07T18:03:02.982Z,7.67
2019-06-07T18:05:32.149Z,7.22
2019-06-07T18:08:01.912Z,7.10
2019-06-07T18:10:37.798Z,7.15
2019-06-07T18:13:07.430Z,7.37
2019-06-07T18:15:44.480Z,7.87
2019-06-07T18:18:13.718Z,7.47
2019-06-07T18:20:43.264Z,7.30
2019-06-07T18:25:41.553Z,7.37
2019-06-07T18:28:10.845Z,6.90
2019-06-07T18:30:40.037Z,6.78
2019-06-07T18:33:09.158Z,6.95
2019-06-07T18:35:38.269Z,6.67
2019-06-07T18:38:10.583Z,6.97
2019-06-07T18:40:38.302Z,6.83
2019-06-07T18:43:07.453Z,7.08
2019-06-07T18:45:36.980Z,7.05
2019-06-07T18:48:06.476Z,6.60
2019-06-07T18:50:35.902Z,7.58
2019-06-07T18:53:05.563Z,7.28
2019-06-07T18:55:35.503Z,6.72
2019-06-07T18:58:41.286Z,6.62
2019-06-07T19:01:10.456Z,6.67
2019-06-07T19:03:39.704Z,6.15
2019-06-07T19:06:08.894Z,6.42
2019-06-07T19:09:35.006Z,6.30
2019-06-07T19:12:04.152Z,6.08
2019-06-07T19:14:36.999Z,5.75
2019-06-07T19:17:04.186Z,6.30
2019-06-07T19:19:33.532Z,5.40
2019-06-07T19:22:02.918Z,6.03
2019-06-07T19:24:32.034Z,5.87
2019-06-07T19:27:01.217Z,6.53
2019-06-07T19:29:30.358Z,6.58
2019-06-07T19:32:01.211Z,6.28
2019-06-07T19:34:31.009Z,5.45
2019-06-07T19:37:02.019Z,5.42
2019-06-07T19:39:31.591Z,6.10
2019-06-07T19:42:02.177Z,5.90
2019-06-07T19:44:31.428Z,6.83
2019-06-07T19:47:01.035Z,6.00
2019-06-07T19:49:30.161Z,6.60
2019-06-07T19:51:59.488Z,6.35
2019-06-07T19:54:28.719Z,6.35
2019-06-07T19:56:57.819Z,6.20
2019-06-07T19:59:27.007Z,7.10
2019-06-07T20:01:56.151Z,5.85
2019-06-07T20:04:34.610Z,6.70
2019-06-07T20:07:05.674Z,6.55
2019-06-07T20:09:34.647Z,5.85
2019-06-07T20:12:04.758Z,6.00
2019-06-07T20:14:34.094Z,5.87
2019-06-07T20:17:03.546Z,6.62
2019-06-07T20:22:01.183Z,6.92
2019-06-07T20:24:30.381Z,7.30
2019-06-07T20:27:00.439Z,6.15
2019-06-07T20:29:30.257Z,6.42
2019-06-07T20:32:00.385Z,6.78
2019-06-07T20:34:29.659Z,6.70
2019-06-07T20:36:59.903Z,6.67
2019-06-07T20:39:29.443Z,6.97
2019-06-07T20:41:59.557Z,6.90
2019-06-07T20:44:28.661Z,6.85
2019-06-07T20:46:58.059Z,6.33
2019-06-07T20:49:27.343Z,6.15
2019-06-07T20:51:56.511Z,6.67
2019-06-07T20:54:25.654Z,7.55
2019-06-07T20:56:54.806Z,3.20
2019-06-07T20:59:24.212Z,2.37
2019-06-07T21:01:53.351Z,2.10
2019-06-07T21:04:22.486Z,1.50
2019-06-07T21:06:51.675Z,1.15
2019-06-07T21:09:20.806Z,0.82
2019-06-07T21:11:49.967Z,0.60
2019-06-07T21:14:19.113Z,1.02
2019-06-07T21:16:48.205Z,1.27
2019-06-07T21:19:17.331Z,1.77
2019-06-07T21:21:46.483Z,1.52
2019-06-07T21:24:15.662Z,1.42
2019-06-07T21:26:44.872Z,2.42
2019-06-07T21:29:14.082Z,2.58
2019-06-07T21:31:43.230Z,2.20
2019-06-07T21:34:14.119Z,2.08
2019-06-07T21:36:43.415Z,2.75
2019-06-07T21:39:12.594Z,2.22
2019-06-07T21:41:41.686Z,2.45
2019-06-07T21:44:10.843Z,3.27
2019-06-07T21:46:40.011Z,2.58
2019-06-07T21:49:10.311Z,3.00
2019-06-07T21:51:39.640Z,3.58
2019-06-07T21:54:10.113Z,3.70
2019-06-07T21:56:39.686Z,3.20
2019-06-07T21:59:09.370Z,3.40
2019-06-07T22:04:07.569Z,3.02
2019-06-07T22:06:36.767Z,2.95
2019-06-07T22:09:07.982Z,2.87
2019-06-07T22:11:37.165Z,2.10
2019-06-07T22:14:06.495Z,1.90
2019-06-07T22:16:35.634Z,2.05
2019-06-07T22:19:04.805Z,1.70
2019-06-07T22:21:33.947Z,1.20
2019-06-07T22:24:03.124Z,1.72
2019-06-07T22:26:32.167Z,1.22
2019-06-07T22:29:01.338Z,1.60
2019-06-07T22:31:31.166Z,1.50
2019-06-07T22:34:00.460Z,1.27
2019-06-07T22:36:29.608Z,1.10
2019-06-07T22:38:58.766Z,1.55
2019-06-07T22:41:27.911Z,1.35
2019-06-07T22:43:57.060Z,1.20
2019-06-07T22:46:36.832Z,1.15
2019-06-07T22:48:57.131Z,1.47
2019-06-07T22:51:26.372Z,1.07
2019-06-07T22:53:55.529Z,1.42
2019-06-07T22:56:32.991Z,1.55
2019-06-07T22:59:02.292Z,1.50
2019-06-07T23:01:31.438Z,2.00
2019-06-07T23:04:00.612Z,1.30
2019-06-07T23:06:29.792Z,1.25
2019-06-07T23:08:58.937Z,1.67
2019-06-07T23:11:28.132Z,1.50
2019-06-07T23:13:57.529Z,1.22
2019-06-07T23:16:26.683Z,1.80
2019-06-07T23:18:55.805Z,1.52
2019-06-07T23:21:24.922Z,1.80
2019-06-07T23:23:54.090Z,1.55
2019-06-07T23:26:23.268Z,1.90
2019-06-07T23:28:52.420Z,1.25
2019-06-07T23:31:21.584Z,1.62
2019-06-07T23:33:50.742Z,2.12
2019-06-07T23:36:21.225Z,2.65
2019-06-07T23:38:50.612Z,3.15
2019-06-07T23:41:20.436Z,2.50
2019-06-07T23:43:49.972Z,2.40
2019-06-07T23:46:19.475Z,2.45
2019-06-07T23:48:48.773Z,2.47
2019-06-07T23:51:17.907Z,1.82
2019-06-07T23:53:47.065Z,1.50
2019-06-07T23:56:16.218Z,1.42
2019-06-07T23:58:45.383Z,1.67
